Time;durP1;ratioP1;P1;durP2;ratioP2;P2;SDS_P1;SDS_P2;PMS_P1;PMS_P2;Temp;Humidity;BMP_temperature;BMP_pressure;BME280_temperature;BME280_humidity;BME280_pressure;Samples;Min_cycle;Max_cycle;Signal;HPM_P1;HPM_P2
2023/07/02 04:47:51;;;;;;;8.68;7.97;;;;;;;;;;6135539;22;20044;-84
2023/07/02 04:50:18;;;;;;;8.48;7.78;;;;;;;;;;6155461;23;20305;-87
2023/07/02 04:52:44;;;;;;;8.68;7.90;;;;;;;;;;6130041;23;20005;-89
2023/07/02 04:55:10;;;;;;;8.45;7.65;;;;;;;;;;6156996;23;20067;-92
2023/07/02 04:57:36;;;;;;;8.32;7.63;;;;;;;;;;6130057;23;20088;-86
2023/07/02 05:00:03;;;;;;;9.05;8.25;;;;;;;;;;6155632;23;20001;-82
2023/07/02 05:02:29;;;;;;;8.18;7.47;;;;;;;;;;6156107;23;20005;-81
2023/07/02 05:04:54;;;;;;;8.20;7.50;;;;;;;;;;6156126;23;20377;-82
2023/07/02 05:07:20;;;;;;;8.48;7.78;;;;;;;;;;6155852;23;20032;-81
2023/07/02 05:09:45;;;;;;;8.02;7.32;;;;;;;;;;6155783;23;20009;-83
2023/07/02 05:12:11;;;;;;;9.38;8.48;;;;;;;;;;6155885;23;20009;-78
2023/07/02 05:14:36;;;;;;;7.95;7.25;;;;;;;;;;6156926;23;20006;-91
2023/07/02 05:17:03;;;;;;;8.90;8.00;;;;;;;;;;6156434;23;20319;-92
2023/07/02 05:19:28;;;;;;;8.25;7.45;;;;;;;;;;6156136;23;20002;-82
2023/07/02 05:21:54;;;;;;;9.07;8.30;;;;;;;;;;6156281;23;20068;-90
2023/07/02 05:24:19;;;;;;;8.77;8.07;;;;;;;;;;6130394;23;20009;-88
2023/07/02 05:26:45;;;;;;;8.80;8.10;;;;;;;;;;6130377;23;20006;-89
2023/07/02 05:29:10;;;;;;;8.90;8.00;;;;;;;;;;6130062;23;20084;-85
2023/07/02 05:31:36;;;;;;;9.27;8.43;;;;;;;;;;6130244;23;20006;-84
2023/07/02 05:34:01;;;;;;;9.20;8.40;;;;;;;;;;6131638;23;20088;-86
2023/07/02 05:36:27;;;;;;;8.63;7.80;;;;;;;;;;6159021;23;20013;-86
2023/07/02 05:38:53;;;;;;;8.30;7.57;;;;;;;;;;6158134;23;20005;-87
2023/07/02 05:41:21;;;;;;;8.75;7.95;;;;;;;;;;6158879;23;20016;-90
2023/07/02 05:43:47;;;;;;;8.50;7.80;;;;;;;;;;6157746;23;20060;-86
2023/07/02 05:46:15;;;;;;;9.40;8.40;;;;;;;;;;6157818;23;20009;-86
2023/07/02 05:48:41;;;;;;;9.85;9.05;;;;;;;;;;6131113;23;20039;-86
2023/07/02 05:51:07;;;;;;;9.82;8.95;;;;;;;;;;6157613;23;20036;-86
2023/07/02 05:53:32;;;;;;;9.55;8.65;;;;;;;;;;6157566;23;19998;-85
2023/07/02 05:55:58;;;;;;;10.32;9.40;;;;;;;;;;6157765;23;20010;-87
2023/07/02 05:58:23;;;;;;;10.48;9.57;;;;;;;;;;6131369;23;20006;-87
2023/07/02 06:00:49;;;;;;;10.15;9.25;;;;;;;;;;6157518;23;20421;-86
2023/07/02 06:03:20;;;;;;;10.63;9.73;;;;;;;;;;6157492;23;20013;-86
2023/07/02 06:05:49;;;;;;;10.65;9.70;;;;;;;;;;6131367;23;20006;-86
2023/07/02 06:08:15;;;;;;;;;;;;;;;;;;6159014;23;20008;-86
2023/07/02 06:10:40;;;;;;;10.60;9.60;;;;;;;;;;6133316;23;19909;-86
2023/07/02 06:13:06;;;;;;;10.30;9.40;;;;;;;;;;6157547;23;20032;-87
2023/07/02 06:15:31;;;;;;;10.60;9.70;;;;;;;;;;6131649;23;20001;-86
2023/07/02 06:17:57;;;;;;;10.52;9.63;;;;;;;;;;6157700;23;20009;-90
2023/07/02 06:20:22;;;;;;;11.30;10.20;;;;;;;;;;6157641;23;20487;-87
2023/07/02 08:42:29;;;;;;;20.27;18.27;;;;;;;;;;6153382;23;20049;-88
2023/07/02 08:44:57;;;;;;;22.38;20.23;;;;;;;;;;6156011;23;20025;-85
2023/07/02 08:47:22;;;;;;;21.33;19.27;;;;;;;;;;6156418;23;20077;-91
2023/07/02 08:49:49;;;;;;;20.77;18.77;;;;;;;;;;6154923;23;20096;-86
2023/07/02 08:52:15;;;;;;;23.23;20.83;;;;;;;;;;6156356;23;20421;-87
2023/07/02 08:54:42;;;;;;;19.23;17.25;;;;;;;;;;6156559;23;20044;-86
2023/07/02 08:57:09;;;;;;;19.00;17.05;;;;;;;;;;6156197;23;20005;-87
2023/07/02 08:59:36;;;;;;;22.98;20.67;;;;;;;;;;6154905;23;20072;-94
2023/07/02 09:02:02;;;;;;;18.52;16.63;;;;;;;;;;6157330;23;20037;-85
2023/07/02 09:04:28;;;;;;;23.05;20.75;;;;;;;;;;6157068;23;20028;-94
2023/07/02 09:07:06;;;;;;;21.63;19.52;;;;;;;;;;6157161;23;20002;-87
2023/07/02 09:09:31;;;;;;;24.13;20.23;;;;;;;;;;6158909;23;20074;-88
2023/07/02 09:11:57;;;;;;;19.88;17.98;;;;;;;;;;6157797;23;20012;-86
2023/07/02 09:14:30;;;;;;;17.73;15.85;;;;;;;;;;6157015;23;20006;-79
2023/07/02 09:17:10;;;;;;;20.77;18.73;;;;;;;;;;6157477;23;20433;-79
2023/07/02 09:19:37;;;;;;;20.45;18.27;;;;;;;;;;6157956;23;20076;-80
2023/07/02 09:22:03;;;;;;;19.23;17.23;;;;;;;;;;6158267;23;20012;-82
2023/07/02 09:24:31;;;;;;;19.35;17.45;;;;;;;;;;6158447;23;20005;-80
2023/07/02 09:26:59;;;;;;;23.40;20.50;;;;;;;;;;6157796;23;20005;-80
2023/07/02 09:29:30;;;;;;;20.90;18.80;;;;;;;;;;6158459;23;20010;-81
2023/07/02 09:31:57;;;;;;;23.40;21.02;;;;;;;;;;6157881;23;20044;-80
2023/07/02 09:34:32;;;;;;;23.77;21.42;;;;;;;;;;6158192;23;20006;-80
2023/07/02 09:36:59;;;;;;;26.88;24.08;;;;;;;;;;6157704;23;20005;-80
2023/07/02 09:39:29;;;;;;;27.95;25.00;;;;;;;;;;6157820;23;20012;-85
2023/07/02 09:41:57;;;;;;;29.35;26.15;;;;;;;;;;6158372;23;20017;-86
2023/07/02 09:44:27;;;;;;;29.35;26.25;;;;;;;;;;6158098;23;20002;-88
2023/07/02 09:47:15;;;;;;;30.25;27.05;;;;;;;;;;6156174;23;20045;-80
2023/07/02 09:50:03;;;;;;;27.95;24.88;;;;;;;;;;6157625;23;20005;-84
2023/07/02 09:52:29;;;;;;;25.35;22.45;;;;;;;;;;6157705;23;20005;-84
2023/07/02 09:54:55;;;;;;;23.17;20.67;;;;;;;;;;6156075;23;20025;-86
2023/07/02 09:57:20;;;;;;;29.98;23.98;;;;;;;;;;6161422;23;20006;-81
2023/07/02 09:59:46;;;;;;;23.13;20.63;;;;;;;;;;6160711;23;20440;-88
2023/07/02 10:02:12;;;;;;;23.33;20.48;;;;;;;;;;6157694;23;20005;-82
2023/07/02 10:04:46;;;;;;;23.23;20.83;;;;;;;;;;6155926;23;20005;-79
2023/07/02 10:07:12;;;;;;;21.42;19.23;;;;;;;;;;6157470;23;20025;-84
2023/07/02 10:09:40;;;;;;;21.73;19.63;;;;;;;;;;6157581;23;20425;-82
2023/07/02 10:12:25;;;;;;;20.95;18.77;;;;;;;;;;6157091;23;20036;-83
2023/07/02 10:14:53;;;;;;;20.35;18.17;;;;;;;;;;6158363;23;20327;-88
2023/07/02 10:17:32;;;;;;;19.20;17.30;;;;;;;;;;6158169;23;20006;-86
2023/07/02 10:20:00;;;;;;;18.75;16.85;;;;;;;;;;6156103;23;20060;-85
2023/07/02 10:22:27;;;;;;;19.37;17.53;;;;;;;;;;6157839;23;20329;-86
2023/07/02 10:24:59;;;;;;;20.85;18.60;;;;;;;;;;6157964;23;20077;-85
2023/07/02 10:27:42;;;;;;;22.17;19.95;;;;;;;;;;6157366;23;20006;-83
2023/07/02 10:30:09;;;;;;;20.42;18.50;;;;;;;;;;6157290;23;20010;-85
2023/07/02 10:32:35;;;;;;;17.70;15.90;;;;;;;;;;6157475;23;20020;-85
2023/07/02 10:35:12;;;;;;;21.67;19.30;;;;;;;;;;6131563;23;20100;-85
2023/07/02 10:37:38;;;;;;;18.65;16.67;;;;;;;;;;6157096;23;20089;-83
2023/07/02 10:40:06;;;;;;;23.30;20.80;;;;;;;;;;6157341;23;20041;-81
2023/07/02 10:42:33;;;;;;;22.47;20.10;;;;;;;;;;6157075;23;20396;-83
2023/07/02 10:44:59;;;;;;;21.48;19.15;;;;;;;;;;6157392;23;20310;-81
2023/07/02 10:47:25;;;;;;;22.52;19.50;;;;;;;;;;6157882;23;20012;-81
2023/07/02 10:49:50;;;;;;;19.65;17.23;;;;;;;;;;6157775;23;20412;-81
2023/07/02 10:52:16;;;;;;;19.33;17.05;;;;;;;;;;6157343;23;20009;-84
2023/07/02 10:54:43;;;;;;;23.52;21.13;;;;;;;;;;6131168;23;20037;-81
2023/07/02 10:57:10;;;;;;;25.00;22.38;;;;;;;;;;6157100;23;20002;-83
2023/07/02 10:59:36;;;;;;;20.35;18.15;;;;;;;;;;6157175;23;20077;-82
2023/07/02 11:02:03;;;;;;;23.30;20.15;;;;;;;;;;6130801;23;20009;-80
2023/07/02 11:04:30;;;;;;;20.52;18.42;;;;;;;;;;6157251;23;20009;-81
2023/07/02 11:06:56;;;;;;;21.20;19.00;;;;;;;;;;6156747;23;20029;-83
2023/07/02 11:09:22;;;;;;;22.65;20.38;;;;;;;;;;6130822;23;20012;-81
2023/07/02 11:11:58;;;;;;;17.02;15.45;;;;;;;;;;6156778;23;20014;-86
2023/07/02 11:14:36;;;;;;;18.58;15.55;;;;;;;;;;6156552;23;20413;-83
2023/07/02 11:17:05;;;;;;;13.23;11.95;;;;;;;;;;6157216;23;20001;-84
2023/07/02 11:19:31;;;;;;;12.77;11.60;;;;;;;;;;6156725;23;20008;-81
2023/07/02 11:21:58;;;;;;;12.48;11.27;;;;;;;;;;6156963;23;20483;-82
2023/07/02 11:24:31;;;;;;;13.63;11.35;;;;;;;;;;6155045;23;20006;-81
2023/07/02 11:26:57;;;;;;;13.32;12.13;;;;;;;;;;6155482;23;20005;-82
2023/07/02 11:29:23;;;;;;;16.13;14.52;;;;;;;;;;6156583;23;20370;-81
2023/07/02 11:31:48;;;;;;;12.18;11.00;;;;;;;;;;6156274;23;20137;-82
2023/07/02 11:34:20;;;;;;;13.23;12.00;;;;;;;;;;6156425;23;20006;-82
2023/07/02 11:36:46;;;;;;;13.90;12.45;;;;;;;;;;6130165;23;20013;-79
2023/07/02 11:39:21;;;;;;;17.10;15.32;;;;;;;;;;6130697;23;20141;-81
2023/07/02 11:41:53;;;;;;;14.93;13.43;;;;;;;;;;6154944;23;20009;-82
2023/07/02 11:44:18;;;;;;;14.18;12.73;;;;;;;;;;6156670;23;20008;-82
2023/07/02 11:46:44;;;;;;;14.43;13.02;;;;;;;;;;6156918;23;19994;-80
2023/07/02 11:49:10;;;;;;;12.18;10.98;;;;;;;;;;6156705;23;20410;-80
2023/07/02 11:51:39;;;;;;;16.15;14.45;;;;;;;;;;6156382;23;20084;-80
2023/07/02 11:54:05;;;;;;;10.45;9.35;;;;;;;;;;6156593;23;20011;-81
2023/07/02 11:56:30;;;;;;;10.77;9.70;;;;;;;;;;6156348;23;20029;-81
2023/07/02 11:58:56;;;;;;;10.82;9.73;;;;;;;;;;6156974;23;20086;-81
2023/07/02 12:01:24;;;;;;;10.07;9.18;;;;;;;;;;6156382;23;20448;-79
2023/07/02 12:03:50;;;;;;;12.82;11.57;;;;;;;;;;6156541;23;20005;-81
2023/07/02 12:06:15;;;;;;;10.40;9.45;;;;;;;;;;6156421;23;20072;-81
2023/07/02 12:08:41;;;;;;;9.90;8.90;;;;;;;;;;6155836;23;20324;-79
2023/07/02 12:11:07;;;;;;;10.60;9.50;;;;;;;;;;6156188;23;20381;-80
2023/07/02 12:13:32;;;;;;;14.10;12.80;;;;;;;;;;6130150;23;20370;-81
2023/07/02 12:15:58;;;;;;;10.75;9.75;;;;;;;;;;6156455;23;20002;-78
2023/07/02 12:18:23;;;;;;;11.55;10.55;;;;;;;;;;6155916;23;20141;-78
2023/07/02 12:20:49;;;;;;;13.98;12.65;;;;;;;;;;6156467;23;20394;-79
2023/07/02 12:23:14;;;;;;;10.43;9.48;;;;;;;;;;6154610;23;20013;-80
2023/07/02 12:25:40;;;;;;;9.98;9.07;;;;;;;;;;6130090;23;20064;-79
2023/07/02 12:28:05;;;;;;;9.68;8.68;;;;;;;;;;6156103;23;20005;-81
2023/07/02 12:30:31;;;;;;;12.90;11.60;;;;;;;;;;6156322;23;20002;-81
2023/07/02 12:32:57;;;;;;;10.30;9.30;;;;;;;;;;6156192;23;20424;-83
2023/07/02 12:35:23;;;;;;;9.32;8.43;;;;;;;;;;6129870;23;20005;-80
2023/07/02 12:37:50;;;;;;;10.30;9.30;;;;;;;;;;6155814;23;20096;-82
2023/07/02 12:40:16;;;;;;;11.85;9.60;;;;;;;;;;6156037;23;20076;-78
2023/07/02 12:42:42;;;;;;;10.48;9.57;;;;;;;;;;6156529;23;20104;-79
2023/07/02 12:45:09;;;;;;;9.02;8.23;;;;;;;;;;6157932;23;20006;-80
2023/07/02 12:47:34;;;;;;;11.25;10.15;;;;;;;;;;6158188;23;20005;-79
2023/07/02 12:50:00;;;;;;;9.68;8.88;;;;;;;;;;6158020;23;20463;-79
2023/07/02 12:52:25;;;;;;;9.88;8.95;;;;;;;;;;6158038;23;20270;-79
2023/07/02 12:54:51;;;;;;;9.07;8.27;;;;;;;;;;6157915;23;20001;-79
2023/07/02 12:57:17;;;;;;;10.45;9.52;;;;;;;;;;6157913;23;20421;-79
2023/07/02 12:59:43;;;;;;;9.10;8.30;;;;;;;;;;6158097;23;20005;-81
2023/07/02 13:02:10;;;;;;;11.13;10.02;;;;;;;;;;6158005;23;20010;-79
2023/07/02 13:04:36;;;;;;;12.75;11.48;;;;;;;;;;6158206;23;20006;-84
2023/07/02 13:07:01;;;;;;;11.70;10.35;;;;;;;;;;6157889;23;20076;-79
2023/07/02 13:09:27;;;;;;;11.70;10.50;;;;;;;;;;6131739;23;20052;-83
2023/07/02 13:11:52;;;;;;;12.27;11.07;;;;;;;;;;6158070;23;20353;-79
2023/07/02 13:14:18;;;;;;;10.95;9.95;;;;;;;;;;6158437;23;20002;-78
2023/07/02 13:16:43;;;;;;;11.18;10.07;;;;;;;;;;6132073;23;20009;-79
2023/07/02 13:19:09;;;;;;;12.07;11.05;;;;;;;;;;6157993;23;20001;-78
2023/07/02 13:21:34;;;;;;;11.88;10.77;;;;;;;;;;6156262;23;20036;-78
2023/07/02 13:24:00;;;;;;;10.63;9.63;;;;;;;;;;6158424;23;20029;-77
2023/07/02 13:26:25;;;;;;;13.57;12.27;;;;;;;;;;6131863;23;20005;-77
2023/07/02 13:28:51;;;;;;;11.57;10.48;;;;;;;;;;6158076;23;20012;-80
2023/07/02 13:31:16;;;;;;;10.93;9.45;;;;;;;;;;6157700;23;20424;-82
2023/07/02 13:33:42;;;;;;;17.10;15.45;;;;;;;;;;6157910;23;20002;-83
2023/07/02 13:36:08;;;;;;;13.68;12.27;;;;;;;;;;6158195;23;20008;-84
2023/07/02 13:38:34;;;;;;;14.98;12.98;;;;;;;;;;6158174;23;20002;-83
2023/07/02 13:41:00;;;;;;;15.02;13.32;;;;;;;;;;6158701;23;20005;-85
2023/07/02 13:43:26;;;;;;;15.18;13.68;;;;;;;;;;6158950;23;20009;-85
2023/07/02 13:45:52;;;;;;;17.95;14.20;;;;;;;;;;6158958;23;20009;-84
2023/07/02 13:48:17;;;;;;;15.73;14.15;;;;;;;;;;6131436;23;20005;-84
2023/07/02 13:50:43;;;;;;;15.55;13.85;;;;;;;;;;6157921;23;20460;-85
2023/07/02 13:53:09;;;;;;;13.73;12.35;;;;;;;;;;6157544;23;20326;-85
2023/07/02 13:55:34;;;;;;;11.80;9.57;;;;;;;;;;6158357;23;20008;-85
2023/07/02 13:58:00;;;;;;;14.43;12.80;;;;;;;;;;6157480;23;20002;-85
2023/07/02 14:00:29;;;;;;;12.40;11.20;;;;;;;;;;6157742;23;20006;-85
2023/07/02 14:02:55;;;;;;;;;;;;;;;;;;6156566;23;20125;-83
2023/07/02 14:05:21;;;;;;;12.32;11.13;;;;;;;;;;6157496;23;20324;-83
2023/07/02 14:07:46;;;;;;;13.85;12.05;;;;;;;;;;6155786;23;20016;-83
2023/07/02 20:35:57;;;;;;;10.13;9.18;;;;;;;;;;6173938;23;20033;-92
2023/07/02 20:38:25;;;;;;;9.25;8.35;;;;;;;;;;6131600;23;20013;-89
2023/07/02 20:41:01;;;;;;;9.60;8.70;;;;;;;;;;6156362;23;20019;-89
2023/07/02 20:43:33;;;;;;;9.45;8.65;;;;;;;;;;6108922;23;20010;-92
2023/07/02 20:46:00;;;;;;;9.27;8.48;;;;;;;;;;6127237;23;20002;-90
2023/07/02 20:48:27;;;;;;;9.32;8.52;;;;;;;;;;6127021;23;20028;-90
2023/07/02 20:50:52;;;;;;;9.38;8.57;;;;;;;;;;6101572;23;20006;-90
2023/07/02 20:53:18;;;;;;;9.20;8.40;;;;;;;;;;6127000;23;20006;-91
2023/07/02 20:55:53;;;;;;;8.80;8.05;;;;;;;;;;6127082;23;19998;-88
2023/07/02 20:58:19;;;;;;;10.93;9.82;;;;;;;;;;6126856;23;20009;-87
2023/07/02 21:00:44;;;;;;;9.75;8.85;;;;;;;;;;6126744;23;20081;-88
2023/07/02 21:03:09;;;;;;;9.48;8.68;;;;;;;;;;6126711;23;20045;-88
2023/07/02 21:05:36;;;;;;;9.50;8.63;;;;;;;;;;6128913;23;20006;-90
2023/07/02 21:08:02;;;;;;;8.73;8.02;;;;;;;;;;6128724;23;20002;-87
2023/07/02 21:10:27;;;;;;;9.88;8.98;;;;;;;;;;6128849;23;20130;-86
2023/07/02 21:12:53;;;;;;;10.65;9.75;;;;;;;;;;6128572;23;20104;-89
2023/07/02 21:15:18;;;;;;;9.43;8.52;;;;;;;;;;6102992;23;20017;-89
2023/07/02 21:17:48;;;;;;;9.75;8.85;;;;;;;;;;6103508;23;20008;-93
2023/07/02 21:20:13;;;;;;;9.70;8.75;;;;;;;;;;6128670;23;20002;-90
2023/07/02 21:22:39;;;;;;;9.38;8.63;;;;;;;;;;6128650;23;20060;-89
2023/07/02 21:25:04;;;;;;;9.38;8.48;;;;;;;;;;6128615;23;20378;-89
2023/07/02 21:27:30;;;;;;;10.48;9.52;;;;;;;;;;6128944;23;20072;-91
2023/07/02 21:29:56;;;;;;;10.30;9.13;;;;;;;;;;6129239;23;20414;-89
2023/07/02 21:32:21;;;;;;;9.95;9.15;;;;;;;;;;6128833;23;20010;-89
2023/07/02 21:34:47;;;;;;;9.75;8.85;;;;;;;;;;6129057;23;20006;-87
2023/07/02 21:37:12;;;;;;;9.10;8.20;;;;;;;;;;6128500;23;20010;-88
2023/07/02 21:39:38;;;;;;;10.05;9.25;;;;;;;;;;6128277;23;20359;-89
2023/07/02 21:42:03;;;;;;;9.38;8.57;;;;;;;;;;6128484;23;20092;-89
2023/07/02 21:44:29;;;;;;;9.98;9.07;;;;;;;;;;6128723;23;20064;-89
2023/07/02 21:46:54;;;;;;;8.90;8.00;;;;;;;;;;6128211;23;20086;-88
2023/07/02 21:49:20;;;;;;;10.15;9.25;;;;;;;;;;6128518;23;20005;-88
2023/07/02 21:51:45;;;;;;;9.13;8.35;;;;;;;;;;6128192;23;20033;-89
2023/07/02 21:54:11;;;;;;;8.77;7.97;;;;;;;;;;6128193;23;20092;-90
2023/07/02 21:56:36;;;;;;;9.77;8.98;;;;;;;;;;6102430;23;20034;-90
